Time;durP1;ratioP1;P1;durP2;ratioP2;P2;SDS_P1;SDS_P2;PMS_P1;PMS_P2;Temp;Humidity;BMP_temperature;BMP_pressure;BME280_temperature;BME280_humidity;BME280_pressure;Samples;Min_cycle;Max_cycle;Signal;HPM_P1;HPM_P2
2022/09/24 00:00:10;;;;;;;64.97;45.10;;;13.60;99.90;;;;;;5013461;28;20034;-65
2022/09/24 00:02:36;;;;;;;60.40;43.05;;;13.70;99.90;;;;;;5026844;28;20049;-65
2022/09/24 00:05:01;;;;;;;65.22;44.63;;;13.70;99.90;;;;;;5024807;28;20038;-65
2022/09/24 00:07:27;;;;;;;63.47;44.17;;;13.50;99.90;;;;;;5012066;28;20045;-64
2022/09/24 00:09:52;;;;;;;64.68;44.42;;;13.80;99.90;;;;;;5013326;28;20041;-65
2022/09/24 00:12:18;;;;;;;63.42;42.95;;;13.60;99.90;;;;;;5013212;28;20045;-65
2022/09/24 00:14:43;;;;;;;65.38;45.40;;;13.70;99.90;;;;;;5012946;28;20053;-64
2022/09/24 00:17:09;;;;;;;65.90;45.58;;;13.80;99.90;;;;;;5025697;28;20137;-65
2022/09/24 00:19:35;;;;;;;66.25;45.15;;;13.60;99.90;;;;;;5022500;28;20045;-65
2022/09/24 00:22:00;;;;;;;64.43;46.22;;;13.60;99.90;;;;;;5030270;28;20533;-65
2022/09/24 00:27:10;;;;;;;71.20;48.85;;;13.60;99.90;;;;;;5011689;28;20042;-65
2022/09/24 00:29:36;;;;;;;68.93;49.15;;;13.70;99.90;;;;;;5013339;28;20030;-65
2022/09/24 00:32:03;;;;;;;65.30;47.65;;;13.70;99.90;;;;;;5012704;28;20073;-65
2022/09/24 00:34:28;;;;;;;68.65;48.28;;;13.70;99.90;;;;;;5013198;28;20038;-64
2022/09/24 00:36:54;;;;;;;70.32;49.50;;;13.60;99.90;;;;;;4995699;28;20095;-65
2022/09/24 00:39:19;;;;;;;67.40;46.35;;;13.60;99.90;;;;;;5011856;28;20042;-65
2022/09/24 00:41:48;;;;;;;70.43;47.70;;;13.70;99.90;;;;;;5011835;28;20046;-65
2022/09/24 00:44:41;;;;;;;71.68;48.85;;;13.60;99.90;;;;;;5016441;28;20050;-65
2022/09/24 00:47:37;;;;;;;74.65;47.55;;;13.80;99.90;;;;;;5031567;28;20477;-65
2022/09/24 00:50:10;;;;;;;75.43;50.42;;;13.60;99.90;;;;;;5002474;28;20056;-65
2022/09/24 00:52:41;;;;;;;74.53;50.92;;;13.60;99.90;;;;;;5015041;28;20105;-65
2022/09/24 00:55:08;;;;;;;69.50;49.05;;;13.70;99.90;;;;;;5035934;28;20037;-64
2022/09/24 00:57:34;;;;;;;68.75;50.17;;;13.70;99.90;;;;;;5036229;28;20533;-65
2022/09/24 01:00:00;;;;;;;80.45;53.45;;;13.70;99.90;;;;;;5036461;28;20396;-65
2022/09/24 01:02:25;;;;;;;72.95;50.72;;;13.80;99.90;;;;;;5036579;28;20044;-65
2022/09/24 01:04:51;;;;;;;75.80;50.75;;;13.80;99.90;;;;;;5030976;28;20030;-64
2022/09/24 01:07:16;;;;;;;72.10;49.92;;;13.60;99.90;;;;;;5016515;28;20041;-64
2022/09/24 01:09:42;;;;;;;71.97;50.38;;;13.80;99.90;;;;;;5016231;28;20042;-64
2022/09/24 01:12:32;;;;;;;79.03;51.67;;;13.70;99.90;;;;;;5016572;28;20038;-65
2022/09/24 01:15:15;;;;;;;76.20;50.67;;;13.90;99.90;;;;;;5016669;28;20054;-64
2022/09/24 01:17:56;;;;;;;72.57;50.65;;;13.70;99.90;;;;;;5025968;28;20088;-65
2022/09/24 01:20:59;;;;;;;72.75;51.78;;;13.80;99.90;;;;;;5028770;28;20037;-65
2022/09/24 01:23:52;;;;;;;70.82;49.83;;;13.70;99.90;;;;;;5030304;28;20046;-64
2022/09/24 01:26:50;;;;;;;74.13;52.17;;;13.80;99.90;;;;;;5016444;28;20034;-65
2022/09/24 01:29:30;;;;;;;74.47;51.30;;;13.80;99.90;;;;;;5021072;28;20041;-65
2022/09/24 01:32:11;;;;;;;77.00;51.40;;;13.70;99.90;;;;;;5035735;28;20577;-64
2022/09/24 01:34:42;;;;;;;71.50;50.97;;;13.80;99.90;;;;;;5027559;28;20396;-63
2022/09/24 01:37:08;;;;;;;75.57;50.75;;;13.70;99.90;;;;;;5016835;28;20038;-64
2022/09/24 01:39:36;;;;;;;72.40;50.33;;;13.80;99.90;;;;;;5035687;28;20041;-65
2022/09/24 01:42:03;;;;;;;74.85;51.50;;;14.00;99.90;;;;;;5022248;28;20041;-65
2022/09/24 01:44:29;;;;;;;71.78;51.20;;;13.90;99.90;;;;;;5035130;28;20480;-65
2022/09/24 01:46:54;;;;;;;74.60;51.45;;;13.70;99.90;;;;;;5024110;28;20042;-65
2022/09/24 01:49:20;;;;;;;72.07;49.53;;;13.80;99.90;;;;;;5014523;28;20034;-64
2022/09/24 01:51:57;;;;;;;76.22;50.70;;;13.80;99.90;;;;;;5015502;28;20118;-65
2022/09/24 01:54:31;;;;;;;75.70;50.97;;;13.70;99.90;;;;;;5031258;28;20117;-65
2022/09/24 01:57:06;;;;;;;72.13;48.80;;;13.70;99.90;;;;;;5034499;28;20037;-65
2022/09/24 01:59:39;;;;;;;72.90;48.75;;;13.70;99.90;;;;;;5030836;28;20550;-65
2022/09/24 02:02:30;;;;;;;76.32;50.92;;;13.50;99.90;;;;;;4997834;28;20034;-65
2022/09/24 02:05:11;;;;;;;74.35;49.08;;;13.50;99.90;;;;;;4991636;28;20046;-66
2022/09/24 02:07:46;;;;;;;70.35;49.22;;;13.50;99.90;;;;;;5028399;28;20051;-65
2022/09/24 02:10:16;;;;;;;77.25;50.05;;;13.60;99.90;;;;;;5028064;28;20053;-65
2022/09/24 02:12:45;;;;;;;75.78;50.47;;;13.60;99.90;;;;;;5015464;28;20137;-65
2022/09/24 02:15:16;;;;;;;72.05;49.65;;;13.60;99.90;;;;;;5017310;28;20550;-65
2022/09/24 02:17:46;;;;;;;77.07;50.45;;;13.40;99.90;;;;;;5024713;28;20042;-65
2022/09/24 02:20:15;;;;;;;75.22;51.70;;;13.60;99.90;;;;;;5015019;28;20492;-65
2022/09/24 02:22:42;;;;;;;79.80;52.33;;;13.60;99.90;;;;;;5022054;28;20049;-65
2022/09/24 02:25:12;;;;;;;80.75;49.88;;;13.60;99.90;;;;;;5019582;28;20511;-65
2022/09/24 02:27:38;;;;;;;76.35;50.10;;;13.50;99.90;;;;;;5033567;28;20503;-64
2022/09/24 02:30:05;;;;;;;72.57;50.05;;;13.60;99.90;;;;;;5022119;28;20133;-65
2022/09/24 02:32:35;;;;;;;75.40;50.03;;;13.60;99.90;;;;;;5014714;28;20048;-65
2022/09/24 02:35:05;;;;;;;75.72;50.45;;;13.80;99.90;;;;;;5026412;28;20049;-65
2022/09/24 02:37:38;;;;;;;73.15;50.42;;;13.60;99.90;;;;;;5030134;28;20121;-65
2022/09/24 02:40:07;;;;;;;77.47;51.10;;;13.60;99.90;;;;;;5014728;28;20064;-65
2022/09/24 02:42:33;;;;;;;75.93;50.42;;;13.60;99.90;;;;;;5013291;28;20042;-65
2022/09/24 02:44:59;;;;;;;75.25;50.70;;;13.60;99.90;;;;;;5024505;28;20083;-65
2022/09/24 02:47:26;;;;;;;75.15;50.75;;;13.60;99.90;;;;;;5017770;28;20139;-65
2022/09/24 02:49:51;;;;;;;75.20;50.72;;;13.70;99.90;;;;;;5013254;28;20042;-65
2022/09/24 02:52:17;;;;;;;79.63;52.20;;;13.60;99.90;;;;;;5013020;28;20045;-65
2022/09/24 02:54:43;;;;;;;73.72;50.97;;;13.60;99.90;;;;;;5027838;28;20043;-65
2022/09/24 02:57:09;;;;;;;82.90;50.35;;;13.60;99.90;;;;;;5030788;28;20466;-64
2022/09/24 02:59:35;;;;;;;72.43;49.20;;;13.50;99.90;;;;;;5027911;28;20074;-65
2022/09/24 03:02:00;;;;;;;75.10;50.92;;;13.60;99.90;;;;;;5019601;28;20034;-65
2022/09/24 03:04:27;;;;;;;71.82;48.28;;;;;;;;;;5032677;28;20476;-63
2022/09/24 03:06:53;;;;;;;77.32;50.92;;;13.50;99.90;;;;;;5033905;28;20043;-65
2022/09/24 03:09:19;;;;;;;74.20;50.88;;;13.50;99.90;;;;;;5023423;28;20049;-65
2022/09/24 03:11:46;;;;;;;73.35;49.63;;;13.60;99.90;;;;;;5028887;28;20072;-65
2022/09/24 03:14:11;;;;;;;71.00;47.65;;;13.60;99.90;;;;;;5026529;28;20524;-65
2022/09/24 03:16:37;;;;;;;74.93;50.90;;;13.50;99.90;;;;;;5013919;28;20073;-65
2022/09/24 03:19:02;;;;;;;70.68;48.55;;;13.50;99.90;;;;;;5019230;28;20387;-64
2022/09/24 03:21:28;;;;;;;71.68;47.85;;;13.60;99.90;;;;;;5033373;28;20049;-65
2022/09/24 03:23:54;;;;;;;73.93;47.53;;;13.40;99.90;;;;;;5015600;28;20108;-65
2022/09/24 03:26:20;;;;;;;78.00;49.47;;;13.40;99.90;;;;;;5014155;28;20046;-65
2022/09/24 03:28:45;;;;;;;76.53;50.47;;;13.60;99.90;;;;;;5027885;28;20518;-65
2022/09/24 03:31:11;;;;;;;72.43;46.88;;;13.60;99.90;;;;;;5014204;28;20395;-65
2022/09/24 03:33:41;;;;;;;73.40;47.85;;;13.70;99.90;;;;;;5024870;28;20195;-64
2022/09/24 03:36:08;;;;;;;77.18;50.28;;;13.40;99.90;;;;;;5018505;28;20042;-65
2022/09/24 03:38:35;;;;;;;68.28;47.08;;;13.50;99.90;;;;;;5022195;28;20112;-65
2022/09/24 03:41:02;;;;;;;77.40;49.33;;;13.60;99.90;;;;;;5012612;28;20189;-65
2022/09/24 03:43:28;;;;;;;72.63;47.92;;;13.60;99.90;;;;;;5013504;28;20550;-65
2022/09/24 03:45:54;;;;;;;75.53;50.05;;;13.70;99.90;;;;;;5030598;28;20041;-65
2022/09/24 03:48:21;;;;;;;68.57;46.00;;;13.60;99.90;;;;;;5013551;28;20130;-65
2022/09/24 03:50:47;;;;;;;69.10;47.15;;;13.70;99.90;;;;;;5013432;28;20495;-65
2022/09/24 03:53:14;;;;;;;72.25;47.47;;;13.80;99.90;;;;;;5013497;28;20037;-65
2022/09/24 03:55:43;;;;;;;78.00;50.17;;;13.70;99.90;;;;;;5025593;28;20041;-65
2022/09/24 03:58:09;;;;;;;76.63;49.10;;;13.70;99.90;;;;;;5027323;28;20070;-65
2022/09/24 04:00:35;;;;;;;76.28;46.97;;;13.50;99.90;;;;;;5022881;28;20084;-65
2022/09/24 04:03:00;;;;;;;69.97;45.25;;;13.80;99.90;;;;;;5031222;28;20042;-65
2022/09/24 04:05:26;;;;;;;71.47;46.03;;;13.80;99.90;;;;;;5013094;28;20049;-65
2022/09/24 04:07:52;;;;;;;76.93;47.22;;;13.60;99.90;;;;;;5013299;28;20052;-65
2022/09/24 04:10:17;;;;;;;68.60;44.53;;;13.50;99.90;;;;;;5012190;28;20046;-65
2022/09/24 04:12:44;;;;;;;74.22;47.03;;;13.60;99.90;;;;;;5013187;28;20045;-65
2022/09/24 04:15:10;;;;;;;74.50;46.30;;;13.60;99.90;;;;;;5016493;28;20057;-65
2022/09/24 04:17:35;;;;;;;72.25;45.50;;;13.60;99.90;;;;;;5032896;28;20420;-65
2022/09/24 04:20:01;;;;;;;70.72;46.42;;;13.60;99.90;;;;;;5032692;28;20071;-65
2022/09/24 04:22:28;;;;;;;70.13;45.70;;;13.70;99.90;;;;;;5024047;28;20084;-65
2022/09/24 04:24:56;;;;;;;68.85;44.88;;;13.50;99.90;;;;;;5011911;28;20056;-65
2022/09/24 04:27:22;;;;;;;64.00;42.55;;;13.70;99.90;;;;;;5018125;28;20509;-65
2022/09/24 04:29:47;;;;;;;68.18;46.55;;;13.70;99.90;;;;;;5032349;28;20116;-65
2022/09/24 04:32:13;;;;;;;63.65;43.47;;;13.70;99.90;;;;;;5013340;28;20052;-65
2022/09/24 04:34:38;;;;;;;67.63;42.80;;;13.70;99.90;;;;;;5012849;28;20038;-65
2022/09/24 04:37:04;;;;;;;74.55;45.38;;;13.80;99.90;;;;;;5011705;28;20091;-65
2022/09/24 04:39:30;;;;;;;72.60;45.70;;;13.90;99.90;;;;;;5013180;28;20046;-65
2022/09/24 04:41:56;;;;;;;70.03;46.63;;;13.60;99.90;;;;;;5011525;28;20069;-64
2022/09/24 04:44:22;;;;;;;71.57;46.67;;;13.80;99.90;;;;;;5018227;28;20079;-65
2022/09/24 04:46:48;;;;;;;64.82;43.83;;;13.70;99.90;;;;;;5032620;28;20041;-65
2022/09/24 04:49:14;;;;;;;65.13;43.67;;;13.70;99.90;;;;;;5032386;28;20044;-65
2022/09/24 04:51:40;;;;;;;69.60;45.00;;;13.70;99.90;;;;;;5031261;28;20041;-65
2022/09/24 04:54:08;;;;;;;66.90;45.33;;;13.80;99.90;;;;;;5016478;28;20042;-65
2022/09/24 04:56:33;;;;;;;67.47;44.33;;;13.70;99.90;;;;;;5011619;28;20074;-65
2022/09/24 04:58:59;;;;;;;65.90;43.90;;;13.80;99.90;;;;;;5012610;28;20081;-64
2022/09/24 05:01:25;;;;;;;65.93;45.85;;;13.70;99.90;;;;;;5017717;28;20045;-65
2022/09/24 05:03:52;;;;;;;74.53;47.50;;;13.60;99.90;;;;;;5023988;28;20046;-64
2022/09/24 05:06:18;;;;;;;79.78;49.90;;;13.60;99.90;;;;;;5012601;28;20060;-65
2022/09/24 05:08:43;;;;;;;73.63;46.63;;;13.80;99.90;;;;;;5019155;28;20462;-65
2022/09/24 05:11:09;;;;;;;71.45;46.05;;;13.70;99.90;;;;;;5031169;28;20049;-65
2022/09/24 05:13:34;;;;;;;74.35;47.28;;;13.70;99.90;;;;;;5027499;28;20046;-65
2022/09/24 05:16:01;;;;;;;66.90;45.97;;;13.80;99.90;;;;;;5011349;28;20050;-65
2022/09/24 05:18:27;;;;;;;71.53;47.33;;;13.60;99.90;;;;;;5012331;28;20038;-65
2022/09/24 05:20:53;;;;;;;74.78;48.47;;;13.70;99.90;;;;;;5013006;28;20038;-65
2022/09/24 05:23:19;;;;;;;73.25;49.22;;;13.70;99.90;;;;;;5026289;28;20033;-65
2022/09/24 05:28:30;;;;;;;68.50;44.92;;;13.70;99.90;;;;;;5012413;28;20046;-65
2022/09/24 05:30:59;;;;;;;70.93;45.97;;;13.60;99.90;;;;;;5011454;28;20045;-65
2022/09/24 05:33:25;;;;;;;70.35;44.60;;;13.60;99.90;;;;;;5026334;28;20044;-65
2022/09/24 05:35:56;;;;;;;70.85;46.78;;;13.70;99.90;;;;;;5011369;28;20399;-65
2022/09/24 05:38:23;;;;;;;63.88;43.10;;;13.80;99.90;;;;;;5012426;28;20037;-65
2022/09/24 05:40:49;;;;;;;80.18;48.28;;;13.80;99.90;;;;;;5012249;28;20037;-65
2022/09/24 05:43:18;;;;;;;78.22;46.53;;;13.70;99.90;;;;;;5026877;28;20037;-65
2022/09/24 05:45:44;;;;;;;69.28;42.45;;;13.70;99.90;;;;;;5030955;28;20045;-65
2022/09/24 05:48:10;;;;;;;58.47;40.17;;;13.70;99.90;;;;;;5014831;28;20088;-65
2022/09/24 05:50:36;;;;;;;64.22;41.15;;;13.70;99.90;;;;;;5029077;28;20491;-65
2022/09/24 05:53:03;;;;;;;57.22;38.50;;;13.80;99.90;;;;;;5034169;28;20096;-65
2022/09/24 05:55:29;;;;;;;72.40;42.50;;;13.80;99.90;;;;;;5034279;28;20503;-65
2022/09/24 05:57:54;;;;;;;65.00;42.22;;;13.80;99.90;;;;;;5035093;28;20029;-65
2022/09/24 06:00:20;;;;;;;62.30;40.83;;;13.70;99.90;;;;;;5034086;28;20042;-65
2022/09/24 06:02:46;;;;;;;61.53;39.20;;;13.80;99.90;;;;;;5034023;28;20047;-65
2022/09/24 06:05:12;;;;;;;64.43;40.60;;;13.70;99.90;;;;;;5014412;28;20415;-66
2022/09/24 06:07:38;;;;;;;58.13;38.80;;;13.70;99.90;;;;;;5015545;28;20041;-67
2022/09/24 06:10:06;;;;;;;63.85;41.40;;;13.70;99.90;;;;;;5032677;28;20034;-67
2022/09/24 06:12:33;;;;;;;60.50;38.13;;;;;;;;;;5029675;28;20111;-65
2022/09/24 06:15:00;;;;;;;67.32;43.25;;;13.80;99.90;;;;;;5034298;28;20057;-65
2022/09/24 06:17:26;;;;;;;72.53;44.50;;;13.70;99.90;;;;;;5033682;28;20037;-66
2022/09/24 06:19:51;;;;;;;58.00;38.13;;;13.80;99.90;;;;;;5034506;28;20061;-68
2022/09/24 06:22:17;;;;;;;59.47;37.00;;;13.70;99.90;;;;;;5034735;28;20064;-67
2022/09/24 06:24:42;;;;;;;55.00;37.80;;;13.90;99.90;;;;;;5032929;28;20064;-66
2022/09/24 06:27:08;;;;;;;56.92;37.45;;;13.90;99.90;;;;;;5025488;28;20042;-66
2022/09/24 06:29:34;;;;;;;71.97;42.63;;;13.90;99.90;;;;;;5016826;28;20069;-66
2022/09/24 06:32:00;;;;;;;64.90;40.53;;;13.90;99.90;;;;;;5031056;28;20046;-67
2022/09/24 06:34:26;;;;;;;63.55;40.92;;;13.90;99.90;;;;;;5022683;28;20042;-67
2022/09/24 06:36:55;;;;;;;59.63;39.28;;;13.80;99.90;;;;;;5014852;28;20038;-66
2022/09/24 06:39:22;;;;;;;58.33;38.50;;;13.70;99.90;;;;;;5014365;28;20046;-67
2022/09/24 06:41:50;;;;;;;68.25;40.17;;;13.80;99.90;;;;;;5032458;28;20091;-67
2022/09/24 06:44:16;;;;;;;55.33;36.38;;;13.90;99.90;;;;;;5034332;28;20120;-67
2022/09/24 06:46:42;;;;;;;58.58;38.40;;;13.90;99.90;;;;;;5033034;28;20052;-66
2022/09/24 06:49:07;;;;;;;54.33;35.40;;;13.90;99.90;;;;;;5034268;28;20508;-68
2022/09/24 06:51:33;;;;;;;51.88;34.53;;;13.90;99.90;;;;;;5031605;28;20041;-67
2022/09/24 06:53:58;;;;;;;65.40;37.25;;;14.00;99.90;;;;;;5032670;28;20034;-67
2022/09/24 06:56:24;;;;;;;55.05;35.17;;;14.10;99.90;;;;;;5032313;28;20033;-67
2022/09/24 06:58:50;;;;;;;52.63;33.15;;;14.00;99.90;;;;;;5033945;28;20095;-66
2022/09/24 07:01:15;;;;;;;50.33;31.63;;;14.10;99.90;;;;;;5033736;28;20033;-66
2022/09/24 07:03:41;;;;;;;49.30;32.38;;;14.20;99.90;;;;;;5029147;28;20128;-67
2022/09/24 07:06:07;;;;;;;49.45;31.50;;;;;;;;;;5027083;28;20030;-64
2022/09/24 07:08:34;;;;;;;50.03;31.15;;;;;;;;;;5023360;28;20049;-65
2022/09/24 07:10:59;;;;;;;41.28;26.92;;;14.20;99.90;;;;;;5020368;28;20037;-67
2022/09/24 07:13:25;;;;;;;40.97;27.23;;;14.10;99.90;;;;;;5012090;28;20056;-62
2022/09/24 07:15:51;;;;;;;42.90;26.25;;;14.30;99.90;;;;;;5012906;28;20104;-65
2022/09/24 07:18:18;;;;;;;38.30;20.60;;;14.20;99.90;;;;;;5017100;28;20038;-65
2022/09/24 07:20:44;;;;;;;29.05;18.35;;;14.30;99.90;;;;;;5031983;28;20414;-64
2022/09/24 07:23:11;;;;;;;28.83;14.68;;;14.40;99.90;;;;;;5033151;28;20091;-64
2022/09/24 07:25:37;;;;;;;26.48;13.10;;;14.30;99.90;;;;;;5032314;28;20558;-67
2022/09/24 07:28:05;;;;;;;26.73;12.35;;;14.60;99.90;;;;;;5031514;28;20376;-68
2022/09/24 07:30:33;;;;;;;25.38;10.23;;;14.40;99.90;;;;;;5032841;28;20099;-67
2022/09/24 07:32:59;;;;;;;23.02;10.27;;;14.40;99.90;;;;;;5030537;28;20115;-66
2022/09/24 07:35:26;;;;;;;14.30;5.32;;;14.30;99.90;;;;;;5031839;28;20029;-67
2022/09/24 07:38:07;;;;;;;21.52;5.88;;;14.50;99.90;;;;;;5031000;28;20041;-67
2022/09/24 07:40:33;;;;;;;18.27;4.90;;;14.40;99.90;;;;;;5031525;28;20041;-67
2022/09/24 07:42:59;;;;;;;10.63;3.38;;;14.50;99.90;;;;;;5033545;28;20480;-66
2022/09/24 07:45:28;;;;;;;11.35;2.97;;;14.60;99.90;;;;;;5031907;28;20080;-65
2022/09/24 07:48:02;;;;;;;13.68;2.60;;;14.70;99.90;;;;;;5031904;28;20095;-65
2022/09/24 07:50:29;;;;;;;10.13;2.63;;;14.70;99.90;;;;;;5033223;28;20512;-65
2022/09/24 07:52:55;;;;;;;13.60;2.83;;;14.70;99.90;;;;;;5031507;28;20045;-67
2022/09/24 07:55:22;;;;;;;15.02;3.30;;;14.80;99.90;;;;;;5030664;28;20041;-67
2022/09/24 07:57:48;;;;;;;8.88;2.88;;;14.70;99.90;;;;;;5009753;28;20088;-67
2022/09/24 08:00:16;;;;;;;11.35;2.80;;;14.90;99.90;;;;;;5032678;28;20084;-68
2022/09/24 08:02:42;;;;;;;9.30;1.98;;;;;;;;;;5019209;28;20507;-66
2022/09/24 08:05:09;;;;;;;13.15;2.22;;;15.00;99.90;;;;;;5017389;28;20175;-66
2022/09/24 08:07:34;;;;;;;20.77;2.15;;;15.10;99.90;;;;;;5031856;28;20396;-66
2022/09/24 08:10:00;;;;;;;13.73;2.33;;;15.30;99.90;;;;;;5031145;28;20037;-65
2022/09/24 08:12:26;;;;;;;18.23;2.25;;;15.40;99.90;;;;;;5031957;28;20034;-66
2022/09/24 08:14:52;;;;;;;8.57;2.03;;;15.40;99.90;;;;;;5017610;28;20516;-67
2022/09/24 08:17:18;;;;;;;9.18;1.83;;;15.40;99.90;;;;;;5013515;28;20030;-66
2022/09/24 08:19:45;;;;;;;7.20;1.98;;;15.40;99.90;;;;;;5013467;28;20034;-66
2022/09/24 08:22:13;;;;;;;11.73;1.83;;;15.60;99.90;;;;;;5018335;28;20045;-65
2022/09/24 08:24:39;;;;;;;10.63;2.38;;;15.50;99.90;;;;;;5021255;28;20088;-65
2022/09/24 08:27:05;;;;;;;6.07;1.65;;;;;;;;;;5011792;28;20037;-66
2022/09/24 08:29:30;;;;;;;11.90;2.00;;;15.60;99.90;;;;;;5013012;28;20069;-65
2022/09/24 08:31:56;;;;;;;6.63;1.63;;;15.60;99.90;;;;;;5011534;28;20076;-65
2022/09/24 08:34:21;;;;;;;12.77;1.90;;;15.60;99.90;;;;;;5020586;28;20041;-65
2022/09/24 08:36:47;;;;;;;11.32;1.88;;;15.40;99.90;;;;;;5032716;28;20049;-65
2022/09/24 08:39:14;;;;;;;11.77;2.00;;;15.60;99.90;;;;;;5031549;28;20045;-66
2022/09/24 08:41:54;;;;;;;9.95;2.33;;;15.50;99.90;;;;;;5019687;28;20046;-66
2022/09/24 08:47:41;;;;;;;9.63;1.70;;;15.50;99.90;;;;;;5032560;28;20056;-66
2022/09/24 08:50:17;;;;;;;14.73;1.60;;;15.70;99.90;;;;;;5019974;28;20041;-65
2022/09/24 08:52:42;;;;;;;7.85;1.85;;;15.70;99.90;;;;;;5011436;28;20065;-65
2022/09/24 08:55:34;;;;;;;7.90;1.33;;;15.70;99.90;;;;;;5011498;28;20042;-65
2022/09/24 08:58:07;;;;;;;13.20;2.17;;;15.70;99.90;;;;;;5014850;28;20038;-66
2022/09/24 09:00:42;;;;;;;6.50;1.55;;;15.60;99.90;;;;;;5011761;28;20388;-65
2022/09/24 09:03:34;;;;;;;;;;;15.90;99.90;;;;;;5025786;28;20049;-65
2022/09/24 09:06:03;;;;;;;11.30;1.65;;;15.80;99.90;;;;;;5008668;28;19921;-65
2022/09/24 09:08:39;;;;;;;16.17;1.90;;;15.70;99.90;;;;;;5011294;28;20085;-66
2022/09/24 09:11:07;;;;;;;7.13;1.38;;;15.90;99.90;;;;;;5012585;28;20045;-65
2022/09/24 09:13:51;;;;;;;5.60;1.38;;;16.30;99.90;;;;;;5010492;28;20104;-65
2022/09/24 09:16:55;;;;;;;7.00;1.13;;;16.10;99.90;;;;;;5015849;28;20130;-65
2022/09/24 09:19:26;;;;;;;10.70;1.55;;;16.10;99.90;;;;;;5012411;28;20121;-65
2022/09/24 09:21:59;;;;;;;7.03;1.77;;;15.90;99.90;;;;;;5014925;28;20046;-65
2022/09/24 09:24:51;;;;;;;6.57;1.20;;;16.00;99.90;;;;;;5016641;28;20488;-65
2022/09/24 09:27:19;;;;;;;6.72;1.10;;;16.30;99.90;;;;;;5015970;28;20037;-65
2022/09/24 09:29:54;;;;;;;7.60;2.05;;;16.10;99.90;;;;;;5016171;28;20093;-65
2022/09/24 09:32:42;;;;;;;4.30;1.20;;;16.20;99.90;;;;;;5034798;28;20041;-65
2022/09/24 09:35:26;;;;;;;10.00;1.20;;;16.00;99.90;;;;;;5022119;28;20053;-65
2022/09/24 09:38:18;;;;;;;5.72;1.50;;;15.80;99.90;;;;;;5015982;28;20144;-65
2022/09/24 09:41:16;;;;;;;4.90;1.55;;;16.00;99.90;;;;;;4993832;28;20050;-65
2022/09/24 09:43:42;;;;;;;7.93;2.67;;;16.00;99.90;;;;;;5016574;28;20042;-65
2022/09/24 09:46:21;;;;;;;4.30;1.48;;;16.10;99.90;;;;;;5029019;28;20044;-65
2022/09/24 09:48:55;;;;;;;7.65;1.55;;;16.00;99.90;;;;;;5014757;28;20370;-66
2022/09/24 09:51:24;;;;;;;6.22;1.48;;;16.20;99.90;;;;;;5016069;28;20188;-65
2022/09/24 09:53:56;;;;;;;7.65;2.17;;;15.90;99.90;;;;;;5015488;28;20050;-66
2022/09/24 09:56:25;;;;;;;5.10;1.80;;;15.90;99.90;;;;;;5015753;28;20046;-65
2022/09/24 09:58:54;;;;;;;6.63;1.55;;;16.00;99.90;;;;;;5028033;28;20505;-66
2022/09/24 10:01:30;;;;;;;6.55;1.70;;;16.00;99.90;;;;;;5034903;28;20071;-65
2022/09/24 10:04:01;;;;;;;4.32;1.30;;;15.90;99.90;;;;;;5033202;28;20063;-65
2022/09/24 10:06:36;;;;;;;3.50;0.93;;;15.80;99.90;;;;;;5033492;28;20432;-65
2022/09/24 10:09:20;;;;;;;5.93;1.10;;;16.00;99.90;;;;;;5032934;28;20033;-65
2022/09/24 10:11:46;;;;;;;7.28;1.20;;;15.80;99.90;;;;;;5032755;28;20033;-65
2022/09/24 10:14:14;;;;;;;8.77;1.33;;;16.00;99.90;;;;;;5029833;28;20049;-65
2022/09/24 10:16:43;;;;;;;8.40;1.10;;;15.70;99.90;;;;;;5027758;28;20095;-65
2022/09/24 10:19:26;;;;;;;7.43;1.00;;;15.70;99.90;;;;;;5034687;28;20124;-65
2022/09/24 10:21:56;;;;;;;8.05;1.40;;;15.70;99.90;;;;;;5027386;28;20045;-66
2022/09/24 10:24:24;;;;;;;8.45;1.45;;;15.60;99.90;;;;;;5033768;28;20085;-65
2022/09/24 10:26:50;;;;;;;3.50;1.00;;;15.60;99.90;;;;;;5032650;28;20488;-65
2022/09/24 10:32:05;;;;;;;8.63;1.55;;;;;;;;;;5030821;28;20041;-67
2022/09/24 10:34:31;;;;;;;6.82;1.23;;;15.60;99.90;;;;;;5033157;28;20484;-64
2022/09/24 10:37:03;;;;;;;4.80;1.67;;;15.50;99.90;;;;;;5031615;28;20034;-64
2022/09/24 10:39:30;;;;;;;3.97;1.08;;;15.60;99.90;;;;;;5034378;28;20044;-63
2022/09/24 10:41:56;;;;;;;5.47;1.17;;;15.50;99.90;;;;;;5032997;28;20045;-65
2022/09/24 10:44:25;;;;;;;6.05;1.13;;;15.50;99.90;;;;;;5032703;28;20117;-64
2022/09/24 10:47:16;;;;;;;11.88;2.15;;;15.50;99.90;;;;;;5032492;28;20392;-64
2022/09/24 10:50:18;;;;;;;6.35;1.35;;;15.50;99.90;;;;;;5021347;28;20487;-64
2022/09/24 10:53:14;;;;;;;10.13;1.52;;;15.60;99.90;;;;;;5032551;28;20084;-63
2022/09/24 10:55:54;;;;;;;7.80;1.25;;;15.50;99.90;;;;;;5030788;28;20487;-65
2022/09/24 10:58:52;;;;;;;5.53;1.02;;;15.70;99.90;;;;;;5033148;28;20083;-65
2022/09/24 11:01:43;;;;;;;6.43;1.30;;;15.60;99.90;;;;;;4994731;28;20053;-66
2022/09/24 11:04:21;;;;;;;9.55;1.98;;;15.60;99.90;;;;;;5013196;28;20049;-65
2022/09/24 11:07:07;;;;;;;7.00;1.55;;;15.60;99.90;;;;;;5020855;28;20045;-66
2022/09/24 11:09:48;;;;;;;5.57;1.65;;;15.60;99.90;;;;;;5031559;28;20048;-65
2022/09/24 11:12:34;;;;;;;7.60;1.50;;;15.40;99.90;;;;;;5024054;28;20030;-63
2022/09/24 11:15:18;;;;;;;8.77;1.48;;;15.50;99.90;;;;;;5031585;28;20061;-63
2022/09/24 11:17:55;;;;;;;10.38;1.55;;;15.50;99.90;;;;;;5030587;28;20045;-64
2022/09/24 11:20:35;;;;;;;9.60;2.38;;;15.50;99.90;;;;;;5030814;28;20099;-65
2022/09/24 11:23:00;;;;;;;5.90;1.40;;;15.50;99.90;;;;;;5030642;28;20487;-64
2022/09/24 11:25:49;;;;;;;9.82;1.63;;;15.50;99.90;;;;;;5031115;28;20087;-62
2022/09/24 11:28:43;;;;;;;9.43;1.63;;;15.30;99.90;;;;;;5028890;28;20033;-62
2022/09/24 11:31:40;;;;;;;9.90;1.60;;;15.30;99.90;;;;;;5030855;28;20038;-64
2022/09/24 11:34:11;;;;;;;10.95;1.85;;;15.30;99.90;;;;;;5030187;28;20053;-66
2022/09/24 11:36:52;;;;;;;9.05;1.75;;;15.20;99.90;;;;;;5029098;28;20407;-64
2022/09/24 11:39:26;;;;;;;17.38;2.22;;;15.20;99.90;;;;;;5025543;28;20099;-64
2022/09/24 11:42:07;;;;;;;6.22;1.58;;;15.20;99.90;;;;;;5031829;28;20043;-63
2022/09/24 11:45:10;;;;;;;7.20;1.23;;;15.20;99.90;;;;;;5029546;28;20511;-63
2022/09/24 11:47:58;;;;;;;12.25;2.13;;;15.40;99.90;;;;;;5033236;28;20131;-63
2022/09/24 11:50:27;;;;;;;5.88;1.48;;;15.10;99.90;;;;;;5032813;28;20041;-63
2022/09/24 11:53:03;;;;;;;6.18;1.33;;;15.00;99.90;;;;;;5029944;28;20052;-63
2022/09/24 11:55:52;;;;;;;7.82;1.35;;;15.10;99.90;;;;;;5033480;28;20034;-63
2022/09/24 11:58:29;;;;;;;6.28;1.60;;;15.00;99.90;;;;;;5032828;28;20064;-63
2022/09/24 12:01:02;;;;;;;8.13;1.35;;;15.10;99.90;;;;;;5033190;28;20041;-63
2022/09/24 12:03:51;;;;;;;6.22;1.60;;;14.90;99.90;;;;;;5025900;28;20057;-63
2022/09/24 12:06:23;;;;;;;7.57;1.20;;;14.70;99.90;;;;;;5013227;28;20397;-63
2022/09/24 12:09:16;;;;;;;6.07;1.05;;;14.80;99.90;;;;;;5012363;28;20072;-63
2022/09/24 12:11:48;;;;;;;9.40;1.45;;;14.80;99.90;;;;;;5012175;28;20053;-63
2022/09/24 12:14:24;;;;;;;6.10;1.50;;;14.80;99.90;;;;;;5021365;28;20507;-63
2022/09/24 12:16:55;;;;;;;6.68;1.23;;;14.80;99.90;;;;;;5032790;28;20495;-63
2022/09/24 12:19:31;;;;;;;11.00;2.08;;;14.80;99.90;;;;;;5032013;28;20033;-62
2022/09/24 12:22:00;;;;;;;10.13;1.52;;;14.70;99.90;;;;;;5029504;28;20117;-63
2022/09/24 12:24:37;;;;;;;7.97;2.05;;;14.70;99.90;;;;;;5012120;28;20129;-63
2022/09/24 12:27:34;;;;;;;9.02;1.85;;;14.60;99.90;;;;;;5030245;28;20041;-62
2022/09/24 12:32:54;;;;;;;8.82;1.70;;;14.70;99.90;;;;;;5022266;28;20041;-63
2022/09/24 12:35:36;;;;;;;8.02;1.50;;;14.50;99.90;;;;;;5015981;28;20054;-63
2022/09/24 12:38:07;;;;;;;7.18;1.33;;;14.50;99.90;;;;;;5013190;28;20103;-63
2022/09/24 12:40:44;;;;;;;8.73;1.48;;;14.60;99.90;;;;;;5013074;28;20050;-63
2022/09/24 12:43:25;;;;;;;13.40;2.10;;;14.20;99.90;;;;;;5011938;28;20060;-63
2022/09/24 12:46:01;;;;;;;7.32;1.80;;;14.60;99.90;;;;;;5013216;28;20045;-63
2022/09/24 12:48:28;;;;;;;5.90;1.20;;;14.70;99.90;;;;;;5032756;28;20045;-63
2022/09/24 12:50:59;;;;;;;11.13;2.40;;;14.60;99.90;;;;;;5020740;28;20033;-63
2022/09/24 12:53:35;;;;;;;8.93;1.40;;;14.90;99.90;;;;;;5036626;28;20041;-63
2022/09/24 12:56:03;;;;;;;6.53;1.25;;;14.90;99.90;;;;;;5022564;28;20051;-63
2022/09/24 12:58:40;;;;;;;7.43;1.63;;;14.80;99.90;;;;;;5036452;28;20040;-63
2022/09/24 13:01:10;;;;;;;7.18;1.70;;;15.00;99.90;;;;;;5018871;28;20030;-63
2022/09/24 13:03:37;;;;;;;7.35;2.00;;;14.80;99.90;;;;;;5016995;28;20427;-63
2022/09/24 13:06:36;;;;;;;7.15;1.80;;;14.70;99.90;;;;;;5016608;28;20052;-63
2022/09/24 13:09:22;;;;;;;8.48;1.83;;;14.80;99.90;;;;;;5016528;28;20038;-63